Time;durP1;ratioP1;P1;durP2;ratioP2;P2;SDS_P1;SDS_P2;PMS_P1;PMS_P2;Temp;Humidity;BMP_temperature;BMP_pressure;BME280_temperature;BME280_humidity;BME280_pressure;Samples;Min_cycle;Max_cycle;Signal;HPM_P1;HPM_P2
2022/08/04 00:02:06;;;;;;;7.57;3.83;;;;;;;16.96;100.00;93318.81;5089279;28;20502;-76
2022/08/04 00:04:44;;;;;;;5.53;3.60;;;;;;;16.91;100.00;93318.81;5089277;28;20048;-76
2022/08/04 00:07:18;;;;;;;6.03;4.05;;;;;;;16.89;100.00;93313.06;5089277;28;20150;-77
2022/08/04 00:09:51;;;;;;;5.03;3.90;;;;;;;16.86;100.00;93320.56;5088679;28;20094;-76
2022/08/04 00:12:17;;;;;;;6.10;3.53;;;;;;;16.85;100.00;93324.94;5089445;28;20105;-76
2022/08/04 00:14:53;;;;;;;5.10;3.33;;;;;;;16.74;100.00;93311.13;5089428;28;20044;-76
2022/08/04 00:17:23;;;;;;;4.93;3.78;;;;;;;16.71;100.00;93311.59;5089265;28;20040;-76
2022/08/04 00:19:55;;;;;;;5.97;4.00;;;;;;;16.80;100.00;93317.16;5088997;28;20459;-76
2022/08/04 00:22:27;;;;;;;3.92;3.35;;;;;;;16.79;100.00;93311.16;5088889;28;20444;-76
2022/08/04 00:24:55;;;;;;;4.93;3.60;;;;;;;16.85;100.00;93321.59;5088891;28;20044;-76
2022/08/04 00:27:22;;;;;;;7.20;3.92;;;;;;;16.78;100.00;93319.19;5089050;28;20036;-76
2022/08/04 00:29:51;;;;;;;6.55;4.18;;;;;;;16.72;100.00;93313.19;5089064;28;20047;-76
2022/08/04 00:32:18;;;;;;;7.70;4.38;;;;;;;16.69;100.00;93317.06;5088846;28;20101;-76
2022/08/04 00:34:46;;;;;;;7.20;3.72;;;;;;;16.69;100.00;93316.25;5088820;28;20121;-76
2022/08/04 00:37:15;;;;;;;6.80;4.57;;;;;;;16.63;100.00;93309.47;5088576;28;20044;-77
2022/08/04 00:39:42;;;;;;;5.70;3.97;;;;;;;16.63;100.00;93317.25;5088824;28;20040;-76
2022/08/04 00:42:33;;;;;;;6.10;3.70;;;;;;;16.63;100.00;93318.03;5088677;28;20036;-76
2022/08/04 00:45:32;;;;;;;4.38;3.13;;;;;;;16.62;100.00;93326.06;5088567;28;20509;-76
2022/08/04 00:48:12;;;;;;;6.15;4.03;;;;;;;16.53;100.00;93318.69;5088424;28;20036;-76
2022/08/04 00:50:45;;;;;;;5.55;4.13;;;;;;;16.54;100.00;93320.25;5088645;28;20051;-76
2022/08/04 00:53:19;;;;;;;5.50;3.95;;;;;;;16.53;100.00;93318.69;5088621;28;20070;-78
2022/08/04 00:56:22;;;;;;;5.50;4.10;;;;;;;16.47;100.00;93309.28;5088849;28;20082;-77
2022/08/04 00:59:03;;;;;;;8.00;4.15;;;;;;;16.43;100.00;93314.19;5065548;28;20043;-77
2022/08/04 01:01:48;;;;;;;5.82;3.92;;;;;;;16.34;100.00;93318.22;5088816;28;20478;-77
2022/08/04 01:04:20;;;;;;;7.30;4.30;;;;;;;16.27;100.00;93321.03;5088681;28;20044;-76
2022/08/04 01:07:05;;;;;;;6.55;4.32;;;;;;;16.17;100.00;93320.91;5088799;28;20125;-76
2022/08/04 01:09:41;;;;;;;;;;;;;;;16.17;100.00;93323.50;5088971;28;20460;-76
2022/08/04 01:12:38;;;;;;;4.78;4.07;;;;;;;16.06;100.00;93322.56;5088877;28;19924;-78
2022/08/04 01:15:07;;;;;;;5.95;4.47;;;;;;;16.00;100.00;93321.75;5088929;28;20048;-77
2022/08/04 01:17:50;;;;;;;5.22;4.32;;;;;;;15.90;100.00;93324.19;5088637;28;20044;-77
2022/08/04 01:20:21;;;;;;;6.55;4.68;;;;;;;15.93;100.00;93322.94;5091267;28;20113;-77
2022/08/04 01:23:48;;;;;;;5.53;4.00;;;;;;;15.97;100.00;93324.81;5093062;28;20044;-77
2022/08/04 01:26:43;;;;;;;5.43;3.58;;;;;;;15.94;100.00;93327.09;5096092;28;20044;-77
2022/08/04 01:29:12;;;;;;;5.07;4.20;;;;;;;15.95;100.00;93329.44;5100313;28;20056;-77
2022/08/04 01:32:04;;;;;;;6.70;3.92;;;;;;;15.98;100.00;93328.97;5107272;28;20120;-77
2022/08/04 01:34:36;;;;;;;6.35;4.10;;;;;;;15.98;100.00;93325.59;5107428;28;20105;-77
2022/08/04 01:37:16;;;;;;;5.15;3.75;;;;;;;15.96;100.00;93320.66;5101225;28;20435;-77
2022/08/04 01:39:50;;;;;;;6.13;4.07;;;;;;;15.90;100.00;93327.56;5098902;28;20391;-77
2022/08/04 01:42:20;;;;;;;5.70;4.55;;;;;;;15.79;100.00;93312.13;5104510;28;20048;-77
2022/08/04 01:44:50;;;;;;;6.13;4.68;;;;;;;15.70;100.00;93315.09;5107149;28;20100;-77
2022/08/04 01:47:21;;;;;;;6.30;3.70;;;;;;;15.75;100.00;93325.53;5095671;28;20177;-77
2022/08/04 01:49:51;;;;;;;5.72;4.13;;;;;;;15.80;100.00;93329.22;5103669;28;20048;-77
2022/08/04 01:52:19;;;;;;;4.43;3.92;;;;;;;15.78;100.00;93324.28;5106810;28;20179;-77
2022/08/04 01:54:48;;;;;;;9.52;4.53;;;;;;;15.77;100.00;93330.47;5100952;28;20050;-77
2022/08/04 01:57:18;;;;;;;8.63;4.85;;;;;;;15.77;100.00;93327.88;5098199;28;20482;-76
2022/08/04 01:59:47;;;;;;;5.18;4.18;;;;;;;15.68;100.00;93319.75;5105529;28;20048;-77
2022/08/04 02:02:15;;;;;;;10.63;4.22;;;;;;;15.70;100.00;93322.09;5106595;28;20051;-77
2022/08/04 02:04:43;;;;;;;5.95;4.53;;;;;;;15.67;100.00;93319.97;5098323;28;20036;-77
2022/08/04 02:07:23;;;;;;;6.10;4.78;;;;;;;15.56;100.00;93311.28;5100059;28;20067;-76
2022/08/04 02:09:59;;;;;;;6.75;4.68;;;;;;;15.54;100.00;93313.31;5098681;28;20386;-76
2022/08/04 02:12:35;;;;;;;6.45;4.32;;;;;;;15.50;100.00;93302.66;5099027;28;20044;-76
2022/08/04 02:15:07;;;;;;;7.22;4.50;;;;;;;15.50;100.00;93310.44;5099401;28;20450;-76
2022/08/04 02:17:46;;;;;;;6.45;5.00;;;;;;;15.53;100.00;93309.16;5098410;28;20043;-76
2022/08/04 02:20:19;;;;;;;7.32;4.63;;;;;;;15.56;100.00;93308.72;5099804;28;20047;-76
2022/08/04 02:22:52;;;;;;;5.80;4.63;;;;;;;15.58;100.00;93311.84;5097884;28;20044;-76
2022/08/04 02:25:25;;;;;;;5.60;4.45;;;;;;;15.54;100.00;93308.16;5104643;28;20048;-76
2022/08/04 02:28:00;;;;;;;5.40;4.43;;;;;;;15.48;100.00;93304.72;5105936;28;20047;-76
2022/08/04 02:30:33;;;;;;;6.78;4.35;;;;;;;15.50;100.00;93300.06;5099276;28;20108;-76
2022/08/04 02:33:04;;;;;;;7.20;4.15;;;;;;;15.46;100.00;93304.94;5097286;28;20057;-76
2022/08/04 02:35:35;;;;;;;8.27;4.43;;;;;;;15.46;100.00;93310.13;5104409;28;20090;-76
2022/08/04 02:38:21;;;;;;;9.20;4.55;;;;;;;15.45;100.00;93315.53;5105956;28;20443;-76
2022/08/04 02:40:48;;;;;;;5.47;4.80;;;;;;;15.46;100.00;93306.78;5100715;28;20129;-76
2022/08/04 02:43:19;;;;;;;6.28;4.25;;;;;;;15.41;100.00;93314.47;5097763;28;20047;-76
2022/08/04 02:45:49;;;;;;;6.82;4.57;;;;;;;15.36;100.00;93307.38;5103965;28;20048;-76
2022/08/04 02:48:22;;;;;;;6.50;4.68;;;;;;;15.33;100.00;93306.06;5102401;28;20043;-76
2022/08/04 02:50:50;;;;;;;6.15;4.25;;;;;;;15.17;100.00;93288.72;5097332;28;20048;-76
2022/08/04 02:53:21;;;;;;;5.65;4.18;;;;;;;15.12;100.00;93297.22;5101564;28;20048;-76
2022/08/04 02:55:51;;;;;;;5.50;4.45;;;;;;;15.17;100.00;93310.22;5105424;28;20462;-77
2022/08/04 02:58:21;;;;;;;6.05;4.30;;;;;;;14.99;100.00;93290.53;5100527;28;20108;-78
2022/08/04 03:00:50;;;;;;;7.30;4.90;;;;;;;15.11;100.00;93311.16;5097514;28;20052;-77
2022/08/04 03:03:26;;;;;;;6.63;4.95;;;;;;;15.10;100.00;93307.78;5103090;28;20040;-77
2022/08/04 03:06:28;;;;;;;7.50;5.05;;;;;;;14.98;100.00;93301.91;5105508;28;20492;-76
2022/08/04 03:09:30;;;;;;;7.07;4.70;;;;;;;15.07;100.00;93320.41;5104058;28;20043;-76
2022/08/04 03:12:19;;;;;;;6.20;4.80;;;;;;;14.85;100.00;93281.53;5102057;28;20044;-77
2022/08/04 03:15:42;;;;;;;9.52;4.70;;;;;;;15.00;100.00;93310.22;5105390;28;20048;-77
2022/08/04 03:18:48;;;;;;;6.10;4.47;;;;;;;15.04;100.00;93324.25;5066081;28;20383;-77
2022/08/04 03:21:54;;;;;;;6.30;4.57;;;;;;;15.04;100.00;93320.91;5105115;28;20089;-77
2022/08/04 03:24:59;;;;;;;6.47;4.80;;;;;;;15.07;100.00;93318.63;5104970;28;20043;-77
2022/08/04 03:27:56;;;;;;;7.10;4.55;;;;;;;15.14;100.00;93325.44;5090810;28;20089;-77
2022/08/04 03:30:35;;;;;;;8.65;5.18;;;;;;;15.06;100.00;93311.09;5098406;28;20047;-77
2022/08/04 03:33:24;;;;;;;6.85;5.10;;;;;;;15.10;100.00;93318.13;5096413;28;20570;-76
2022/08/04 03:36:41;;;;;;;8.25;4.78;;;;;;;14.97;100.00;93292.59;5100728;28;20094;-77
2022/08/04 03:39:31;;;;;;;9.10;4.53;;;;;;;15.15;100.00;93327.78;5012395;28;20041;-77
2022/08/04 03:42:39;;;;;;;6.70;4.88;;;;;;;15.08;100.00;93324.56;5095177;28;20788;-77
2022/08/04 03:45:33;;;;;;;10.60;5.20;;;;;;;15.02;100.00;93317.75;5027788;28;20115;-80
2022/08/04 03:48:33;;;;;;;6.22;4.38;;;;;;;15.05;100.00;93323.22;5014477;28;20050;-76
2022/08/04 03:54:24;;;;;;;8.75;5.75;;;;;;;15.07;100.00;93320.41;5096222;28;20074;-78
2022/08/04 03:57:29;;;;;;;14.70;6.25;;;;;;;14.92;100.00;93308.81;5099753;28;20048;-79
2022/08/04 04:00:05;;;;;;;12.35;6.32;;;;;;;15.04;100.00;93331.25;5099176;28;20036;-79
2022/08/04 04:03:07;;;;;;;12.88;7.30;;;;;;;15.09;100.00;93331.31;5091897;28;20047;-79
2022/08/04 04:05:50;;;;;;;14.13;6.95;;;;;;;15.15;100.00;93330.38;5095213;28;20109;-78
2022/08/04 04:08:43;;;;;;;11.23;6.70;;;;;;;15.23;100.00;93329.97;5104651;28;20077;-80
2022/08/04 04:11:38;;;;;;;16.08;7.30;;;;;;;15.33;100.00;93331.16;5097819;28;20044;-79
2022/08/04 04:14:19;;;;;;;14.80;7.27;;;;;;;15.41;100.00;93328.16;5104569;28;20440;-77
2022/08/04 04:16:59;;;;;;;13.30;7.22;;;;;;;15.41;100.00;93317.03;5100385;28;20408;-79
2022/08/04 04:19:51;;;;;;;14.55;7.72;;;;;;;15.32;100.00;93283.78;5095819;28;20047;-78
2022/08/04 04:22:29;;;;;;;13.40;7.00;;;;;;;15.74;100.00;93334.31;5095918;28;20401;-79
2022/08/04 04:25:09;;;;;;;11.50;6.60;;;;;;;15.82;100.00;93324.56;5097997;28;20092;-78
2022/08/04 04:27:43;;;;;;;12.68;7.55;;;;;;;15.95;100.00;93323.47;5108858;28;20051;-79
2022/08/04 04:30:18;;;;;;;13.52;7.38;;;;;;;15.96;100.00;93314.72;5098707;28;20497;-78
2022/08/04 04:33:08;;;;;;;13.27;7.93;;;;;;;16.12;100.00;93320.84;5095917;28;20044;-78
2022/08/04 04:35:41;;;;;;;15.05;7.22;;;;;;;16.24;100.00;93331.88;5098769;28;20127;-79
2022/08/04 04:38:34;;;;;;;12.75;7.43;;;;;;;16.37;100.00;93328.13;5104024;28;20036;-79
2022/08/04 04:41:14;;;;;;;13.27;7.00;;;;;;;16.48;100.00;93321.22;5103736;28;20510;-78
2022/08/04 04:44:14;;;;;;;11.63;7.18;;;;;;;16.66;100.00;93333.09;5102001;28;20089;-79
2022/08/04 04:46:48;;;;;;;14.25;7.35;;;;;;;16.78;100.00;93338.16;5079522;28;20055;-79
2022/08/04 04:49:25;;;;;;;10.80;6.57;;;;;;;16.90;100.00;93332.03;5095662;28;20051;-79
2022/08/04 04:51:58;;;;;;;10.68;7.72;;;;;;;17.07;100.00;93340.50;5097678;28;20093;-79
2022/08/04 04:54:33;;;;;;;11.32;7.15;;;;;;;17.16;100.00;93327.06;5108595;28;20044;-79
2022/08/04 04:57:07;;;;;;;19.10;10.10;;;;;;;17.36;100.00;93329.81;5097037;28;20101;-79
2022/08/04 04:59:36;;;;;;;12.15;7.97;;;;;;;17.47;100.00;93322.91;5103495;28;20091;-79
2022/08/04 05:02:35;;;;;;;14.15;7.97;;;;;;;17.66;100.00;93332.88;5101494;28;20513;-79
2022/08/04 05:05:30;;;;;;;18.17;8.20;;;;;;;17.80;100.00;93328.03;5100941;28;20048;-78
2022/08/04 05:08:29;;;;;;;10.45;6.28;;;;;;;17.96;100.00;93333.31;5103789;28;20048;-79
2022/08/04 05:11:13;;;;;;;7.25;4.15;;;;;;;17.71;100.00;93330.31;5103423;28;20055;-80
2022/08/04 05:13:44;;;;;;;5.40;3.90;;;;;;;17.83;100.00;93335.28;5099479;28;20050;-79
2022/08/04 05:16:19;;;;;;;5.90;3.83;;;;;;;18.03;100.00;93334.66;5095240;28;20105;-78
2022/08/04 05:18:54;;;;;;;7.13;4.32;;;;;;;18.13;100.00;93333.94;5099856;28;20048;-79
2022/08/04 05:21:33;;;;;;;7.72;4.03;;;;;;;17.97;100.00;93347.84;5103499;28;20044;-82
2022/08/04 05:24:05;;;;;;;5.95;3.90;;;;;;;17.84;100.00;93351.69;5100127;28;20044;-82
2022/08/04 05:26:37;;;;;;;7.03;4.25;;;;;;;17.93;100.00;93342.38;5095242;28;20084;-79
2022/08/04 05:29:10;;;;;;;5.30;4.30;;;;;;;17.99;100.00;93332.78;5098861;28;20120;-79
2022/08/04 05:31:41;;;;;;;5.35;3.72;;;;;;;18.23;100.00;93348.03;5103426;28;20048;-81
2022/08/04 05:34:13;;;;;;;8.50;4.65;;;;;;;18.35;100.00;93345.97;5099744;28;20062;-81
2022/08/04 05:36:48;;;;;;;6.55;4.72;;;;;;;18.18;100.00;93327.19;5094919;28;20043;-83
2022/08/04 05:39:20;;;;;;;8.88;4.60;;;;;;;18.25;100.00;93330.34;5098962;28;20051;-82
2022/08/04 05:41:48;;;;;;;9.85;5.50;;;;;;;18.48;100.00;93323.13;5103576;28;20055;-82
2022/08/04 05:44:18;;;;;;;8.25;5.43;;;;;;;18.78;100.00;93342.44;5098645;28;20050;-82
2022/08/04 05:46:47;;;;;;;8.95;4.63;;;;;;;19.08;98.58;93344.34;5092733;28;20094;-81
2022/08/04 05:49:16;;;;;;;10.82;4.88;;;;;;;19.26;97.69;93344.09;5103058;28;20055;-82
2022/08/04 05:51:46;;;;;;;15.88;4.93;;;;;;;19.47;97.59;93343.06;5100447;28;20089;-80
2022/08/04 05:54:14;;;;;;;12.35;4.65;;;;;;;19.57;96.98;93333.63;5095017;28;20070;-82
2022/08/04 05:56:42;;;;;;;15.15;6.55;;;;;;;19.67;97.61;93336.25;5099157;28;20501;-83
2022/08/04 05:59:11;;;;;;;9.20;4.47;;;;;;;19.78;96.21;93329.19;5103276;28;20248;-83
2022/08/04 06:01:39;;;;;;;11.07;4.93;;;;;;;20.11;94.48;93345.31;5097535;28;20097;-78
2022/08/04 06:04:06;;;;;;;14.40;5.63;;;;;;;20.26;92.19;93351.50;5095097;28;20135;-78
2022/08/04 06:06:35;;;;;;;10.38;5.13;;;;;;;20.40;89.20;93351.72;5103440;28;20498;-79
2022/08/04 06:09:02;;;;;;;12.13;5.13;;;;;;;20.51;87.26;93352.47;5106109;28;20052;-79
2022/08/04 06:11:31;;;;;;;11.93;5.47;;;;;;;20.10;86.15;93278.56;5092338;28;20055;-85
2022/08/04 06:14:07;;;;;;;10.20;5.35;;;;;;;20.35;89.22;93312.59;5104228;28;20048;-83
2022/08/04 06:19:52;;;;;;;11.77;3.53;;;;;;;20.66;84.46;93344.56;5089516;28;20055;-84
2022/08/04 06:22:23;;;;;;;9.88;5.00;;;;;;;21.01;85.18;93349.09;5104009;28;20054;-82
2022/08/04 06:27:43;;;;;;;9.90;4.80;;;;;;;21.72;80.87;93354.81;5095490;28;20109;-83
2022/08/04 06:30:25;;;;;;;9.10;4.50;;;;;;;21.62;77.82;93323.53;5106874;28;20056;-84
2022/08/04 06:32:55;;;;;;;13.90;5.10;;;;;;;20.91;80.45;93235.03;5102234;28;20120;-84
2022/08/04 06:35:24;;;;;;;11.02;5.00;;;;;;;21.78;80.04;93354.75;5098835;28;20040;-83
2022/08/04 06:38:03;;;;;;;9.40;5.60;;;;;;;21.99;80.05;93348.28;5100000;28;20048;-83
2022/08/04 06:40:31;;;;;;;16.67;4.72;;;;;;;22.18;78.18;93339.72;5099437;28;20134;-82
2022/08/04 06:42:59;;;;;;;15.32;5.68;;;;;;;22.56;75.69;93357.34;5099677;28;20056;-83
2022/08/04 06:45:27;;;;;;;19.48;5.65;;;;;;;22.74;75.50;93347.19;5106663;28;20059;-83
2022/08/04 06:47:56;;;;;;;15.75;5.70;;;;;;;23.04;74.41;93359.06;5099679;28;20051;-83
2022/08/04 06:50:23;;;;;;;19.08;4.35;;;;;;;23.18;73.41;93353.09;5098422;28;20082;-84
2022/08/04 06:52:51;;;;;;;21.17;5.65;;;;;;;23.40;73.02;93368.25;5098640;28;20386;-83
2022/08/04 06:55:18;;;;;;;28.00;6.78;;;;;;;23.48;73.16;93351.09;5100622;28;20044;-84
2022/08/04 06:57:47;;;;;;;22.75;5.88;;;;;;;23.83;71.32;93353.44;5105756;28;20493;-84
2022/08/04 07:00:19;;;;;;;19.52;5.75;;;;;;;24.09;68.80;93361.63;5102891;28;20047;-84
2022/08/04 07:02:50;;;;;;;17.00;5.22;;;;;;;24.39;67.20;93364.72;5097280;28;20351;-84
2022/08/04 07:05:24;;;;;;;24.45;6.93;;;;;;;24.44;67.05;93349.97;5098954;28;20489;-84
2022/08/04 07:07:53;;;;;;;17.95;5.28;;;;;;;24.67;66.20;93356.81;5101419;28;20050;-84
2022/08/04 07:10:24;;;;;;;18.35;6.25;;;;;;;24.92;66.30;93364.50;5095939;28;20048;-84
2022/08/04 07:13:02;;;;;;;;;;;;;;;;;;;;;
2022/08/04 07:15:30;;;;;;;11.02;5.22;;;;;;;24.67;63.28;93306.16;5104975;28;20058;-85
2022/08/04 07:17:58;;;;;;;21.50;6.68;;;;;;;25.20;61.93;93356.53;5101609;28;20097;-86
2022/08/04 07:20:26;;;;;;;27.02;7.22;;;;;;;25.63;63.27;93363.16;5096964;28;20134;-84
2022/08/04 07:22:54;;;;;;;21.88;6.90;;;;;;;25.91;60.05;93355.09;5102693;28;20531;-85
2022/08/04 07:25:21;;;;;;;16.65;5.47;;;;;;;26.20;60.23;93343.28;5105069;28;20054;-84
2022/08/04 07:27:48;;;;;;;22.75;4.95;;;;;;;26.55;57.65;93353.16;5098757;28;20046;-84
2022/08/04 07:30:15;;;;;;;14.35;4.78;;;;;;;26.86;57.01;93360.22;5097698;28;20060;-84
2022/08/04 07:32:44;;;;;;;12.27;4.88;;;;;;;26.85;56.59;93357.88;5091266;28;20043;-83
2022/08/04 07:35:13;;;;;;;16.30;4.38;;;;;;;27.02;54.90;93355.28;5091842;28;20079;-83
2022/08/04 07:37:40;;;;;;;15.32;5.68;;;;;;;27.13;54.91;93353.13;5105408;28;20040;-83
2022/08/04 07:40:09;;;;;;;13.90;5.55;;;;;;;27.11;54.09;93355.28;5101893;28;20043;-84
2022/08/04 07:42:36;;;;;;;13.50;4.45;;;;;;;26.95;53.72;93331.25;5096775;28;20501;-83
2022/08/04 07:45:03;;;;;;;10.77;4.53;;;;;;;27.24;53.81;93350.13;5101332;28;20043;-83
2022/08/04 07:47:30;;;;;;;11.18;4.13;;;;;;;27.43;54.50;93344.53;5094831;28;20493;-83
2022/08/04 07:49:57;;;;;;;8.05;3.85;;;;;;;27.52;53.97;93341.88;5100383;28;20097;-84
2022/08/04 07:52:25;;;;;;;11.73;4.35;;;;;;;27.87;53.24;93362.94;5104539;28;20089;-83
2022/08/04 07:54:56;;;;;;;7.60;3.00;;;;;;;27.34;52.28;93253.03;5099587;28;20089;-83
2022/08/04 07:57:24;;;;;;;8.07;3.35;;;;;;;27.57;52.51;93333.81;5096307;28;20048;-84
2022/08/04 07:59:51;;;;;;;7.15;3.65;;;;;;;27.84;52.92;93353.00;5102964;28;20831;-84
2022/08/04 08:02:20;;;;;;;8.82;3.35;;;;;;;27.92;52.39;93357.50;5104646;28;20166;-84
2022/08/04 08:04:47;;;;;;;9.82;4.07;;;;;;;28.00;51.88;93358.56;5096870;28;20040;-82
2022/08/04 08:07:14;;;;;;;14.07;3.85;;;;;;;28.10;52.80;93346.88;5110804;28;20135;-83
2022/08/04 08:09:41;;;;;;;10.48;4.10;;;;;;;28.30;52.24;93355.97;5095987;28;20084;-83
2022/08/04 08:12:10;;;;;;;13.70;4.50;;;;;;;28.48;51.68;93354.03;5098946;28;20558;-83
2022/08/04 08:14:38;;;;;;;17.17;4.70;;;;;;;28.46;51.27;93356.19;5104463;28;20047;-84
2022/08/04 08:17:06;;;;;;;14.98;4.60;;;;;;;28.49;51.83;93360.84;5100326;28;20451;-83
2022/08/04 08:19:33;;;;;;;18.40;5.13;;;;;;;28.38;53.45;93330.63;5096132;28;20097;-83
2022/08/04 08:22:01;;;;;;;12.27;4.00;;;;;;;28.59;51.85;93361.59;5101925;28;20040;-84
2022/08/04 08:24:28;;;;;;;14.43;3.90;;;;;;;28.52;51.88;93367.38;5103874;28;20096;-84
2022/08/04 08:26:55;;;;;;;13.02;4.18;;;;;;;28.65;51.16;93362.94;5096829;28;20092;-83
2022/08/04 08:29:24;;;;;;;11.02;3.25;;;;;;;28.60;50.89;93358.59;5096244;28;20452;-85
2022/08/04 08:31:53;;;;;;;8.02;3.15;;;;;;;28.63;51.18;93365.13;5095140;28;20058;-86
2022/08/04 08:34:20;;;;;;;12.93;3.95;;;;;;;28.45;51.20;93370.50;5103293;28;20040;-84
2022/08/04 08:36:58;;;;;;;14.27;3.97;;;;;;;28.68;50.82;93367.56;5102478;28;20107;-85
2022/08/04 08:39:37;;;;;;;7.85;4.05;;;;;;;28.71;51.17;93348.44;5103805;28;20048;-84
2022/08/04 08:42:35;;;;;;;10.07;3.55;;;;;;;29.05;51.13;93361.75;5089566;28;20044;-85
2022/08/04 08:45:28;;;;;;;5.05;3.25;;;;;;;29.49;49.04;93364.06;5098874;28;20084;-84
2022/08/04 08:48:11;;;;;;;7.28;3.55;;;;;;;29.72;49.06;93353.88;5097138;28;20093;-84
2022/08/04 08:51:11;;;;;;;8.20;3.10;;;;;;;29.99;49.79;93350.94;5092631;28;20040;-84
2022/08/04 08:54:21;;;;;;;6.80;2.70;;;;;;;30.27;47.16;93359.03;5068524;28;20162;-84
2022/08/04 08:56:59;;;;;;;5.28;2.90;;;;;;;30.56;47.31;93356.50;5072847;28;20058;-83
2022/08/04 08:59:53;;;;;;;6.05;2.70;;;;;;;30.52;45.71;93361.69;5088271;28;20120;-84
2022/08/04 09:02:57;;;;;;;5.32;2.05;;;;;;;30.35;45.64;93348.66;5088099;28;20055;-84
2022/08/04 09:06:03;;;;;;;4.70;2.45;;;;;;;30.89;47.03;93352.94;5087822;28;20051;-85
2022/08/04 09:08:51;;;;;;;5.50;3.05;;;;;;;30.84;45.78;93350.53;5089062;28;20048;-82
2022/08/04 09:11:22;;;;;;;5.85;2.47;;;;;;;31.15;41.67;93354.41;5088827;28;20571;-85
2022/08/04 09:13:55;;;;;;;2.72;1.80;;;;;;;31.39;42.82;93347.50;5088541;28;20089;-82
2022/08/04 09:16:31;;;;;;;4.43;1.98;;;;;;;31.98;41.64;93347.09;5088315;28;20505;-82
2022/08/04 09:19:05;;;;;;;5.18;2.05;;;;;;;32.15;39.28;93342.56;5091699;28;20105;-82
2022/08/04 09:21:42;;;;;;;4.75;2.28;;;;;;;32.01;37.59;93342.97;5099167;28;20043;-82
2022/08/04 09:24:14;;;;;;;2.08;1.33;;;;;;;31.17;37.98;93323.00;5103027;28;20532;-86
2022/08/04 09:26:46;;;;;;;3.08;1.65;;;;;;;31.21;39.76;93349.63;5092726;28;20055;-85
2022/08/04 09:29:17;;;;;;;2.10;1.20;;;;;;;30.46;33.21;93339.19;5095794;28;20050;-83
2022/08/04 09:31:53;;;;;;;6.22;1.38;;;;;;;29.87;35.00;93341.09;5095451;28;20098;-86
2022/08/04 09:34:40;;;;;;;3.35;1.50;;;;;;;30.06;36.73;93335.28;5093351;28;20097;-86
2022/08/04 09:37:21;;;;;;;2.90;1.52;;;;;;;29.06;37.00;93339.50;5098964;28;20425;-84
2022/08/04 09:40:02;;;;;;;2.50;1.27;;;;;;;29.31;36.22;93334.31;5105908;28;20089;-83
2022/08/04 09:42:38;;;;;;;3.45;1.45;;;;;;;28.92;37.33;93302.75;5097838;28;20035;-83
2022/08/04 09:45:15;;;;;;;2.47;1.50;;;;;;;28.35;38.76;93336.53;5107458;28;20153;-86
2022/08/04 09:47:51;;;;;;;3.30;1.45;;;;;;;28.43;39.57;93342.84;5100329;28;20505;-89
2022/08/04 09:50:29;;;;;;;3.47;1.90;;;;;;;27.95;37.43;93334.97;5111901;28;20477;-84
2022/08/04 09:53:06;;;;;;;2.55;1.65;;;;;;;27.57;38.84;93331.16;5094029;28;20044;-85
2022/08/04 09:55:42;;;;;;;2.50;1.60;;;;;;;26.99;37.88;93328.75;5095905;28;20135;-86
2022/08/04 09:58:21;;;;;;;3.08;1.70;;;;;;;27.33;35.64;93353.56;5091972;28;20080;-86
2022/08/04 10:00:52;;;;;;;2.35;1.42;;;;;;;27.60;35.43;93347.16;5092017;28;20498;-81
2022/08/04 10:03:24;;;;;;;2.42;1.27;;;;;;;27.82;34.46;93350.69;5101045;28;20057;-79
2022/08/04 10:06:06;;;;;;;1.73;1.05;;;;;;;28.01;33.46;93328.44;5097456;28;20048;-81
2022/08/04 10:08:47;;;;;;;3.15;1.20;;;;;;;28.11;34.31;93329.94;5101497;28;20044;-80
2022/08/04 10:11:21;;;;;;;3.22;1.30;;;;;;;28.22;33.73;93344.34;5101967;28;20695;-80
2022/08/04 10:13:56;;;;;;;3.00;1.00;;;;;;;28.60;34.54;93329.53;5102486;28;20116;-81
2022/08/04 10:16:28;;;;;;;;;;;;;;;28.84;32.57;93340.59;5097909;28;20094;-84
2022/08/04 10:19:05;;;;;;;1.98;1.30;;;;;;;29.30;33.93;93332.78;5094364;28;20144;-80
2022/08/04 10:21:47;;;;;;;2.70;1.38;;;;;;;29.76;34.86;93327.50;5103714;28;20047;-81
2022/08/04 10:24:48;;;;;;;2.15;1.23;;;;;;;30.05;33.71;93328.44;5101602;28;20563;-82
2022/08/04 10:27:24;;;;;;;2.47;1.38;;;;;;;29.59;32.88;93339.84;5101482;28;20071;-83
2022/08/04 10:29:57;;;;;;;4.40;1.48;;;;;;;28.75;34.71;93322.16;5100092;28;20062;-81
2022/08/04 10:32:34;;;;;;;2.97;1.70;;;;;;;28.81;41.38;93267.97;5103206;28;20436;-83
2022/08/04 10:35:09;;;;;;;5.32;2.47;;;;;;;29.58;41.25;93319.00;5100528;28;20050;-82
2022/08/04 10:37:42;;;;;;;5.07;2.92;;;;;;;30.05;41.62;93325.78;5091309;28;20395;-82
2022/08/04 10:43:09;;;;;;;5.43;2.15;;;;;;;29.70;40.29;93316.38;5106826;28;20055;-80
2022/08/04 10:45:44;;;;;;;6.82;2.85;;;;;;;30.03;40.81;93317.38;5101443;28;20047;-82
2022/08/04 10:48:20;;;;;;;11.70;3.22;;;;;;;29.89;40.80;93309.00;5102542;28;20075;-81
2022/08/04 10:51:00;;;;;;;4.90;2.42;;;;;;;30.20;39.76;93320.94;5094977;28;20040;-84
2022/08/04 10:53:30;;;;;;;8.52;2.58;;;;;;;30.83;39.53;93314.50;5093752;28;20412;-84
2022/08/04 10:56:03;;;;;;;3.85;1.98;;;;;;;31.33;37.28;93301.09;5104388;28;20085;-84
2022/08/04 10:58:36;;;;;;;7.35;1.88;;;;;;;31.44;36.74;93298.69;5098561;28;20417;-86
2022/08/04 11:01:09;;;;;;;6.15;2.55;;;;;;;31.36;38.03;93308.34;5103365;28;20089;-84
2022/08/04 11:03:44;;;;;;;5.38;2.13;;;;;;;31.37;37.80;93309.88;5105732;28;20108;-84
2022/08/04 11:06:11;;;;;;;3.65;1.80;;;;;;;31.57;37.58;93310.03;5100026;28;20108;-84
2022/08/04 11:08:44;;;;;;;3.80;1.92;;;;;;;31.58;36.91;93300.94;5096895;28;20326;-85
2022/08/04 11:11:16;;;;;;;17.15;11.15;;;;;;;31.95;37.33;93297.28;5110704;28;20096;-85
2022/08/04 11:13:48;;;;;;;7.93;5.07;;;;;;;31.91;36.03;93275.19;5110916;28;20044;-84
2022/08/04 11:16:21;;;;;;;7.45;2.90;;;;;;;32.00;36.87;93281.09;5098676;28;20124;-81
2022/08/04 11:19:03;;;;;;;4.93;2.22;;;;;;;31.57;35.86;93288.78;5096792;28;20055;-88
2022/08/04 11:21:35;;;;;;;3.47;1.70;;;;;;;30.48;37.50;93307.81;5110931;28;20073;-90
2022/08/04 11:24:07;;;;;;;3.60;1.40;;;;;;;30.69;36.97;93298.16;5096667;28;20044;-85
2022/08/04 11:26:45;;;;;;;6.40;1.73;;;;;;;30.97;38.48;93292.13;5102516;28;20044;-80
2022/08/04 11:29:20;;;;;;;4.60;2.03;;;;;;;31.40;37.17;93288.00;5104718;28;20551;-80
2022/08/04 11:31:49;;;;;;;3.13;1.80;;;;;;;31.24;36.38;93290.56;5099178;28;20047;-80
2022/08/04 11:34:20;;;;;;;3.10;1.83;;;;;;;30.13;37.83;93295.03;5108477;28;20500;-79
2022/08/04 11:36:52;;;;;;;2.10;1.58;;;;;;;29.39;36.18;93287.72;5098440;28;20050;-79
2022/08/04 11:39:29;;;;;;;2.38;1.50;;;;;;;29.24;35.92;93287.22;5096468;28;20097;-79
2022/08/04 11:42:05;;;;;;;4.45;1.83;;;;;;;28.65;36.31;93292.34;5101876;28;20040;-79
2022/08/04 11:44:36;;;;;;;3.08;1.90;;;;;;;28.31;36.96;93277.53;5104700;28;20061;-79
2022/08/04 11:47:09;;;;;;;3.55;1.70;;;;;;;28.46;37.83;93278.81;5091887;28;20138;-79
2022/08/04 11:49:41;;;;;;;2.92;1.83;;;;;;;28.86;37.76;93275.72;5103376;28;20066;-79
2022/08/04 11:52:12;;;;;;;3.15;1.88;;;;;;;28.64;38.09;93250.38;5104643;28;20059;-79
2022/08/04 11:54:41;;;;;;;2.80;1.73;;;;;;;29.14;35.94;93277.06;5097340;28;20048;-80
2022/08/04 11:57:10;;;;;;;3.83;1.98;;;;;;;28.90;36.28;93262.66;5096667;28;20097;-79
2022/08/04 11:59:38;;;;;;;2.83;1.75;;;;;;;29.40;37.01;93271.53;5096480;28;20043;-79
2022/08/04 12:02:52;;;;;;;2.03;1.52;;;;;;;29.11;36.66;93264.50;5098037;28;20089;-81
2022/08/04 12:05:20;;;;;;;;;;;;;;;29.20;37.22;93265.94;5040914;28;20116;-80
2022/08/04 12:08:00;;;;;;;2.45;1.67;;;;;;;29.44;36.54;93267.09;5096185;28;19924;-80
2022/08/04 12:10:45;;;;;;;3.45;1.60;;;;;;;29.58;33.75;93268.72;5098992;28;20080;-81
2022/08/04 12:13:26;;;;;;;3.90;1.73;;;;;;;29.31;35.44;93271.63;5103883;28;20048;-80
2022/08/04 12:16:03;;;;;;;2.72;1.98;;;;;;;29.77;34.29;93268.19;5104032;28;20051;-80
2022/08/04 12:18:38;;;;;;;2.67;1.80;;;;;;;30.34;34.55;93264.97;5102611;28;20040;-80
2022/08/04 12:21:09;;;;;;;2.97;2.00;;;;;;;30.66;33.53;93265.13;5104181;28;20135;-80
2022/08/04 12:23:39;;;;;;;4.70;1.80;;;;;;;30.44;34.46;93256.56;5097387;28;20069;-80
2022/08/04 12:26:09;;;;;;;3.50;1.88;;;;;;;30.66;33.48;93250.00;5095561;28;20501;-80